Time;durP1;ratioP1;P1;durP2;ratioP2;P2;SDS_P1;SDS_P2;PMS_P1;PMS_P2;Temp;Humidity;BMP_temperature;BMP_pressure;BME280_temperature;BME280_humidity;BME280_pressure;Samples;Min_cycle;Max_cycle;Signal;HPM_P1;HPM_P2
2022/02/01 00:02:24;;;;;;;0.40;0.40;;;2.30;99.90;;;;;;4973620;28;20738;-77
2022/02/01 00:05:02;;;;;;;0.43;0.40;;;2.40;99.90;;;;;;5008509;28;20194;-78
2022/02/01 00:07:39;;;;;;;0.40;0.40;;;2.30;99.90;;;;;;5034284;28;20696;-78
2022/02/01 00:10:14;;;;;;;0.43;0.40;;;2.30;99.90;;;;;;5034355;28;20207;-78
2022/02/01 00:12:52;;;;;;;0.40;0.40;;;2.30;99.90;;;;;;5034666;28;20230;-78
2022/02/01 00:15:43;;;;;;;0.50;0.40;;;2.20;99.90;;;;;;5034395;28;20220;-76
2022/02/01 00:18:30;;;;;;;0.40;0.40;;;2.20;99.90;;;;;;5034400;28;20195;-77
2022/02/01 00:35:02;;;;;;;0.40;0.40;;;2.60;99.90;;;;;;5013170;28;20210;-79
2022/02/01 00:37:38;;;;;;;0.40;0.40;;;2.60;99.90;;;;;;4989225;28;20193;-78
2022/02/01 00:40:11;;;;;;;0.40;0.40;;;2.60;99.90;;;;;;4990702;28;20290;-77
2022/02/01 00:42:39;;;;;;;0.40;0.40;;;2.50;99.90;;;;;;4990892;28;20237;-78
2022/02/01 00:45:06;;;;;;;8.88;0.73;;;2.60;99.90;;;;;;4990953;28;20837;-77
2022/02/01 00:47:33;;;;;;;1.85;1.13;;;2.60;99.90;;;;;;4990951;28;20233;-78
2022/02/01 00:49:59;;;;;;;0.40;0.40;;;2.70;99.90;;;;;;4990385;28;20252;-77
2022/02/01 00:52:28;;;;;;;0.40;0.40;;;2.70;99.90;;;;;;4989943;28;20209;-78
2022/02/01 00:54:54;;;;;;;0.40;0.40;;;2.80;99.90;;;;;;4994347;28;20206;-78
2022/02/01 00:57:21;;;;;;;0.80;0.80;;;2.90;99.90;;;;;;5012997;28;20204;-77
2022/02/01 00:59:49;;;;;;;0.40;0.40;;;2.90;99.90;;;;;;5012683;28;20292;-78
2022/02/01 01:02:16;;;;;;;0.40;0.40;;;2.90;99.90;;;;;;5012339;28;20277;-78
2022/02/01 01:04:43;;;;;;;0.40;0.40;;;2.90;99.90;;;;;;5012436;28;20199;-78
2022/02/01 01:07:09;;;;;;;0.80;0.55;;;3.00;99.90;;;;;;5012835;28;20192;-78
2022/02/01 01:09:36;;;;;;;0.40;0.40;;;3.10;99.90;;;;;;5012321;28;20204;-78
2022/02/01 01:12:03;;;;;;;0.43;0.40;;;3.00;99.90;;;;;;5012460;28;20686;-78
2022/02/01 01:15:05;;;;;;;0.40;0.40;;;2.90;99.90;;;;;;5012586;28;20200;-78
2022/02/01 01:18:21;;;;;;;0.40;0.40;;;2.90;99.90;;;;;;5012304;28;20210;-79
2022/02/01 01:45:29;;;;;;;0.40;0.35;;;2.60;99.90;;;;;;5012850;28;20195;-80
2022/02/01 01:53:26;;;;;;;0.40;0.40;;;2.70;99.90;;;;;;5012484;28;20712;-80
2022/02/01 01:55:54;;;;;;;0.40;0.40;;;2.70;99.90;;;;;;5012612;28;20227;-80
2022/02/01 01:58:25;;;;;;;0.57;0.57;;;2.70;99.90;;;;;;5013086;28;20543;-80
2022/02/01 02:01:11;;;;;;;0.40;0.40;;;2.70;99.90;;;;;;5012375;28;20184;-79
2022/02/01 02:03:39;;;;;;;0.40;0.30;;;2.80;99.90;;;;;;5011302;28;20228;-79
2022/02/01 02:06:07;;;;;;;17.33;1.80;;;2.80;99.90;;;;;;5012915;28;20283;-77
2022/02/01 02:08:34;;;;;;;1.42;0.82;;;2.80;99.90;;;;;;5012333;28;20242;-80
2022/02/01 02:11:04;;;;;;;0.40;0.40;;;2.80;99.90;;;;;;5012692;28;20196;-78
2022/02/01 02:16:18;;;;;;;0.40;0.40;;;2.80;99.90;;;;;;5012279;28;20195;-79
2022/02/01 02:18:45;;;;;;;0.40;0.40;;;2.80;99.90;;;;;;5012536;28;20198;-78
2022/02/01 02:21:13;;;;;;;0.88;0.88;;;2.80;99.90;;;;;;5012587;28;20290;-76
2022/02/01 02:23:39;;;;;;;0.40;0.30;;;2.80;99.90;;;;;;5011916;28;20220;-80
2022/02/01 02:26:07;;;;;;;0.40;0.40;;;2.80;99.90;;;;;;5012509;28;20631;-80
2022/02/01 02:28:35;;;;;;;2.85;1.15;;;2.90;99.90;;;;;;5012070;28;20195;-79
2022/02/01 02:31:02;;;;;;;0.40;0.35;;;2.90;99.90;;;;;;5012186;28;20262;-79
2022/02/01 02:33:31;;;;;;;0.40;0.40;;;2.90;99.90;;;;;;5012132;28;20215;-79
2022/02/01 02:36:03;;;;;;;0.40;0.35;;;2.90;99.90;;;;;;5012175;28;20196;-79
2022/02/01 02:38:37;;;;;;;0.40;0.35;;;2.90;99.90;;;;;;5012376;28;20206;-79
2022/02/01 02:41:26;;;;;;;0.40;0.40;;;2.90;99.90;;;;;;5012271;28;20202;-79
2022/02/01 02:46:40;;;;;;;1.85;1.75;;;3.00;99.90;;;;;;5012405;28;20198;-79
2022/02/01 02:49:07;;;;;;;0.40;0.38;;;3.00;99.90;;;;;;5011801;28;20211;-79
2022/02/01 02:51:34;;;;;;;0.40;0.30;;;3.00;99.90;;;;;;5011861;28;20199;-79
2022/02/01 02:54:05;;;;;;;0.40;0.40;;;3.00;99.90;;;;;;5011936;28;20721;-76
2022/02/01 02:56:32;;;;;;;0.40;0.30;;;3.00;99.90;;;;;;5012424;28;20746;-79
2022/02/01 02:58:59;;;;;;;0.40;0.40;;;3.00;99.90;;;;;;5011696;28;20196;-79
2022/02/01 03:01:26;;;;;;;0.40;0.30;;;3.00;99.90;;;;;;5012042;28;20278;-78
2022/02/01 03:03:53;;;;;;;0.40;0.40;;;3.00;99.90;;;;;;5013531;28;20231;-79
2022/02/01 03:06:20;;;;;;;0.40;0.35;;;3.00;99.90;;;;;;5013430;28;20690;-78
2022/02/01 03:08:47;;;;;;;0.40;0.30;;;3.00;99.90;;;;;;5013453;28;20203;-77
2022/02/01 03:11:16;;;;;;;0.40;0.30;;;3.00;99.90;;;;;;5012856;28;20196;-79
2022/02/01 03:13:48;;;;;;;2.38;1.70;;;3.00;99.90;;;;;;5012412;28;20216;-77
2022/02/01 03:16:30;;;;;;;0.40;0.40;;;3.00;99.90;;;;;;5016163;28;20176;-79
2022/02/01 03:21:41;;;;;;;1.25;1.25;;;3.00;99.90;;;;;;5015511;28;20195;-79
2022/02/01 03:24:08;;;;;;;0.40;0.40;;;3.00;99.90;;;;;;5014900;28;20314;-79
2022/02/01 03:26:36;;;;;;;0.93;0.90;;;3.00;99.90;;;;;;5015497;28;20669;-79
2022/02/01 03:29:03;;;;;;;0.40;0.40;;;3.00;99.90;;;;;;5014936;28;20199;-79
2022/02/01 03:31:30;;;;;;;0.50;0.50;;;3.00;99.90;;;;;;5015052;28;20669;-79
2022/02/01 03:33:56;;;;;;;13.18;3.13;;;3.00;99.90;;;;;;5015747;28;20212;-79
2022/02/01 03:36:23;;;;;;;0.40;0.30;;;3.00;99.90;;;;;;5015318;28;20196;-79
2022/02/01 03:38:50;;;;;;;0.40;0.40;;;3.00;99.90;;;;;;5014629;28;20199;-79
2022/02/01 03:41:17;;;;;;;0.40;0.40;;;3.00;99.90;;;;;;5015066;28;20214;-78
2022/02/01 03:43:45;;;;;;;0.40;0.40;;;3.00;99.90;;;;;;5014591;28;20224;-79
2022/02/01 03:46:11;;;;;;;0.40;0.40;;;3.00;99.90;;;;;;5014782;28;20254;-79
2022/02/01 03:48:38;;;;;;;0.40;0.40;;;3.00;99.90;;;;;;5014969;28;20396;-79
2022/02/01 03:51:05;;;;;;;0.40;0.40;;;3.00;99.90;;;;;;5014547;28;20223;-79
2022/02/01 03:53:31;;;;;;;0.40;0.40;;;3.00;99.90;;;;;;5014463;28;20239;-78
2022/02/01 03:55:58;;;;;;;0.50;0.50;;;3.00;99.90;;;;;;5014822;28;20645;-78
2022/02/01 03:58:25;;;;;;;0.40;0.40;;;3.00;99.90;;;;;;5014484;28;20286;-79
2022/02/01 04:00:53;;;;;;;0.40;0.40;;;2.90;99.90;;;;;;5014247;28;20263;-79
2022/02/01 04:03:19;;;;;;;0.50;0.40;;;3.00;99.90;;;;;;5014400;28;20224;-79
2022/02/01 04:05:46;;;;;;;0.40;0.30;;;3.00;99.90;;;;;;5014470;28;20194;-78
2022/02/01 04:08:15;;;;;;;0.40;0.30;;;2.90;99.90;;;;;;5014181;28;20196;-79
2022/02/01 04:10:43;;;;;;;0.40;0.40;;;2.90;99.90;;;;;;5014386;28;20573;-79
2022/02/01 04:13:09;;;;;;;0.40;0.40;;;3.00;99.90;;;;;;5014325;28;20728;-78
2022/02/01 04:15:36;;;;;;;0.40;0.40;;;3.00;99.90;;;;;;5014082;28;20204;-79
2022/02/01 04:18:06;;;;;;;0.40;0.40;;;2.90;99.90;;;;;;5014259;28;20283;-79
2022/02/01 04:20:33;;;;;;;0.40;0.30;;;2.90;99.90;;;;;;5015529;28;20206;-80
2022/02/01 04:23:00;;;;;;;0.40;0.40;;;2.90;99.90;;;;;;5016999;28;20227;-80
2022/02/01 04:25:27;;;;;;;5.13;1.40;;;2.90;99.90;;;;;;5016812;28;20246;-79
2022/02/01 04:27:53;;;;;;;0.50;0.50;;;2.90;99.90;;;;;;5016926;28;20270;-79
2022/02/01 04:30:21;;;;;;;0.40;0.40;;;2.90;99.90;;;;;;5017453;28;20196;-79
2022/02/01 04:32:49;;;;;;;1.25;1.15;;;2.90;99.90;;;;;;5017526;28;20216;-79
2022/02/01 04:35:19;;;;;;;0.52;0.52;;;2.90;99.90;;;;;;5016161;28;20196;-77
2022/02/01 04:37:45;;;;;;;0.85;0.85;;;2.90;99.90;;;;;;5016433;28;20200;-79
2022/02/01 04:40:14;;;;;;;0.50;0.50;;;2.90;99.90;;;;;;5016036;28;20200;-76
2022/02/01 04:42:42;;;;;;;0.40;0.40;;;2.90;99.90;;;;;;5015943;28;20219;-80
2022/02/01 04:45:12;;;;;;;0.40;0.40;;;2.90;99.90;;;;;;5016201;28;20207;-80
2022/02/01 04:47:39;;;;;;;2.50;1.45;;;2.90;99.90;;;;;;5016139;28;20184;-79
2022/02/01 04:50:11;;;;;;;2.83;2.63;;;2.90;99.90;;;;;;5015794;28;20202;-80
2022/02/01 04:52:40;;;;;;;0.40;0.40;;;2.90;99.90;;;;;;5016830;28;20232;-80
2022/02/01 04:55:08;;;;;;;2.05;1.13;;;2.90;99.90;;;;;;5015937;28;20202;-79
2022/02/01 04:57:38;;;;;;;0.40;0.40;;;3.00;99.90;;;;;;5016046;28;20203;-78
2022/02/01 05:00:06;;;;;;;0.40;0.40;;;2.90;99.90;;;;;;5015498;28;20228;-80
2022/02/01 05:02:33;;;;;;;0.40;0.40;;;2.90;99.90;;;;;;5016328;28;20223;-80
2022/02/01 05:04:59;;;;;;;0.47;0.40;;;3.00;99.90;;;;;;5016349;28;20287;-80
2022/02/01 05:07:26;;;;;;;0.50;0.50;;;2.90;99.90;;;;;;5015874;28;20204;-79
2022/02/01 05:09:58;;;;;;;0.50;0.40;;;3.00;99.90;;;;;;5015396;28;20246;-80
2022/02/01 05:12:25;;;;;;;1.05;1.02;;;3.00;99.90;;;;;;5015603;28;20222;-79
2022/02/01 05:14:52;;;;;;;0.40;0.40;;;3.00;99.90;;;;;;5014848;28;20573;-80
2022/02/01 05:17:22;;;;;;;0.60;0.60;;;3.00;99.90;;;;;;5015073;28;20199;-80
2022/02/01 05:19:55;;;;;;;0.70;0.70;;;3.00;99.90;;;;;;5015200;28;20203;-80
2022/02/01 05:22:23;;;;;;;0.40;0.40;;;3.00;99.90;;;;;;5015034;28;20227;-77
2022/02/01 05:24:53;;;;;;;0.52;0.45;;;3.00;99.90;;;;;;5014853;28;20587;-80
2022/02/01 05:27:27;;;;;;;2.25;0.98;;;3.00;99.90;;;;;;5002344;28;20279;-79
2022/02/01 05:29:56;;;;;;;0.50;0.50;;;3.10;99.90;;;;;;5014494;28;20176;-78
2022/02/01 05:32:25;;;;;;;0.50;0.40;;;3.10;99.90;;;;;;5015470;28;20216;-79
2022/02/01 05:34:55;;;;;;;0.50;0.40;;;3.10;99.90;;;;;;5005231;28;20199;-79
2022/02/01 05:37:22;;;;;;;0.50;0.50;;;3.10;99.90;;;;;;4996046;28;20255;-77
2022/02/01 05:39:49;;;;;;;4.97;1.13;;;3.10;99.90;;;;;;4992484;28;20621;-79
2022/02/01 05:42:20;;;;;;;0.50;0.40;;;3.10;99.90;;;;;;4993643;28;20208;-78
2022/02/01 05:44:48;;;;;;;0.50;0.40;;;3.10;99.90;;;;;;4993263;28;20213;-80
2022/02/01 05:47:15;;;;;;;0.50;0.43;;;3.10;99.90;;;;;;4993696;28;20201;-79
2022/02/01 05:49:43;;;;;;;0.40;0.40;;;3.10;99.90;;;;;;5004683;28;20283;-79
2022/02/01 05:52:10;;;;;;;1.15;1.05;;;3.10;99.90;;;;;;5004550;28;20255;-79
2022/02/01 05:54:38;;;;;;;0.40;0.40;;;3.00;99.90;;;;;;5010573;28;20211;-79
2022/02/01 05:57:05;;;;;;;0.45;0.40;;;3.00;99.90;;;;;;5015090;28;20207;-79
2022/02/01 05:59:32;;;;;;;1.23;1.05;;;3.10;99.90;;;;;;5013920;28;20520;-79
2022/02/01 06:02:02;;;;;;;0.50;0.50;;;3.10;99.90;;;;;;5013386;28;20674;-78
2022/02/01 06:04:28;;;;;;;0.70;0.60;;;3.10;99.90;;;;;;5015355;28;20227;-80
2022/02/01 06:06:55;;;;;;;0.90;0.60;;;3.20;99.90;;;;;;5012243;28;20211;-78
2022/02/01 06:09:21;;;;;;;0.50;0.43;;;3.20;99.90;;;;;;5012616;28;20226;-78
2022/02/01 06:11:48;;;;;;;0.60;0.60;;;3.20;99.90;;;;;;5012830;28;20665;-79
2022/02/01 06:14:15;;;;;;;1.05;0.90;;;3.20;99.90;;;;;;5013328;28;20220;-79
2022/02/01 06:16:42;;;;;;;1.08;0.52;;;3.20;99.90;;;;;;5012964;28;20230;-79
2022/02/01 06:19:10;;;;;;;21.55;5.38;;;3.20;99.90;;;;;;5013369;28;20295;-79
2022/02/01 06:21:37;;;;;;;1.35;0.90;;;3.20;99.90;;;;;;5013266;28;20218;-79
2022/02/01 06:24:07;;;;;;;0.50;0.50;;;3.30;99.90;;;;;;5082935;22;20771;-76
2022/02/01 06:26:34;;;;;;;0.40;0.40;;;3.30;99.90;;;;;;5059640;28;20194;-75
2022/02/01 06:29:00;;;;;;;1.77;1.67;;;3.30;99.90;;;;;;5072560;28;20190;-79
2022/02/01 06:31:27;;;;;;;1.48;1.02;;;3.40;99.90;;;;;;5073069;28;20253;-79
2022/02/01 06:33:54;;;;;;;2.35;2.15;;;3.40;99.90;;;;;;5079148;28;20297;-78
2022/02/01 06:36:24;;;;;;;1.15;0.80;;;3.40;99.90;;;;;;5093688;28;20303;-78
2022/02/01 06:38:51;;;;;;;0.93;0.55;;;3.40;99.90;;;;;;5094190;28;20192;-79
2022/02/01 06:41:18;;;;;;;6.28;1.10;;;3.50;99.90;;;;;;5093798;28;20201;-79
2022/02/01 06:43:45;;;;;;;0.50;0.40;;;3.50;99.90;;;;;;5093360;28;20220;-79
2022/02/01 06:46:12;;;;;;;0.50;0.50;;;3.50;99.90;;;;;;5091816;28;20201;-78
2022/02/01 06:48:39;;;;;;;1.02;0.93;;;3.50;99.90;;;;;;5091901;28;20200;-77
2022/02/01 06:51:06;;;;;;;5.80;2.35;;;3.50;99.90;;;;;;5095380;28;20193;-77
2022/02/01 06:53:36;;;;;;;1.83;1.73;;;3.60;99.90;;;;;;5095486;28;20193;-77
2022/02/01 06:56:07;;;;;;;0.82;0.82;;;3.60;99.90;;;;;;5098258;28;20649;-78
2022/02/01 06:58:34;;;;;;;0.65;0.65;;;3.60;99.90;;;;;;5096214;28;20670;-78
2022/02/01 07:01:01;;;;;;;0.80;0.80;;;3.60;99.90;;;;;;5094642;28;20615;-77
2022/02/01 07:03:28;;;;;;;3.05;1.48;;;3.60;99.90;;;;;;5095270;28;20212;-79
2022/02/01 07:05:54;;;;;;;0.50;0.43;;;3.70;99.90;;;;;;5096125;28;20262;-80
2022/02/01 07:08:21;;;;;;;1.30;0.80;;;3.70;99.90;;;;;;5096014;28;20254;-80
2022/02/01 07:10:49;;;;;;;0.75;0.75;;;3.70;99.90;;;;;;5096695;28;20605;-79
2022/02/01 07:13:16;;;;;;;0.63;0.45;;;3.70;99.90;;;;;;5096612;28;20645;-78
2022/02/01 07:15:43;;;;;;;0.85;0.70;;;3.70;99.90;;;;;;5095197;28;20287;-78
2022/02/01 07:18:10;;;;;;;4.30;1.25;;;3.70;99.90;;;;;;5095075;28;20189;-76
2022/02/01 07:20:37;;;;;;;11.98;11.15;;;3.70;99.90;;;;;;5095106;28;20631;-75
2022/02/01 07:23:05;;;;;;;0.70;0.50;;;3.60;99.90;;;;;;5094656;28;20725;-76
2022/02/01 07:25:34;;;;;;;2.20;2.03;;;3.70;99.90;;;;;;5094558;28;20254;-76
2022/02/01 07:28:03;;;;;;;1.13;1.02;;;3.70;99.90;;;;;;5094504;28;20243;-76
2022/02/01 07:30:30;;;;;;;2.45;1.05;;;3.60;99.90;;;;;;5094945;28;20200;-76
2022/02/01 07:33:00;;;;;;;2.63;2.53;;;3.60;99.90;;;;;;5094712;28;20200;-76
2022/02/01 07:35:30;;;;;;;3.17;2.05;;;3.60;99.90;;;;;;5094671;28;20209;-76
2022/02/01 07:37:58;;;;;;;0.40;0.40;;;3.60;99.90;;;;;;5094770;28;20194;-76
2022/02/01 07:40:24;;;;;;;0.50;0.40;;;3.60;99.90;;;;;;5093976;28;20209;-76
2022/02/01 07:42:51;;;;;;;2.70;2.58;;;3.60;99.90;;;;;;5094173;28;20197;-77
2022/02/01 07:45:24;;;;;;;1.63;1.52;;;3.70;99.90;;;;;;5089801;28;20221;-76
2022/02/01 07:47:50;;;;;;;10.50;1.23;;;3.70;99.90;;;;;;5094184;28;20542;-76
2022/02/01 07:50:17;;;;;;;5.45;1.50;;;3.70;99.90;;;;;;5093842;28;20201;-75
2022/02/01 07:52:44;;;;;;;3.05;0.82;;;3.70;99.90;;;;;;5089323;28;20203;-76
2022/02/01 07:55:10;;;;;;;8.75;2.45;;;3.70;99.90;;;;;;5087733;28;20320;-78
2022/02/01 07:57:38;;;;;;;0.85;0.82;;;3.70;99.90;;;;;;5093159;28;20216;-76
2022/02/01 08:00:06;;;;;;;5.20;2.00;;;3.70;99.90;;;;;;5093457;28;20602;-76
2022/02/01 08:02:35;;;;;;;1.88;1.00;;;3.70;99.90;;;;;;5093676;28;20194;-74
2022/02/01 08:05:02;;;;;;;0.82;0.82;;;3.60;99.90;;;;;;5093385;28;20221;-76
2022/02/01 08:07:29;;;;;;;4.60;1.88;;;3.60;99.90;;;;;;5094046;28;20192;-75
2022/02/01 08:09:58;;;;;;;1.90;1.02;;;3.60;99.90;;;;;;5093707;28;20196;-76
2022/02/01 08:13:12;;;;;;;0.70;0.70;;;3.60;99.90;;;;;;5093634;28;20242;-76
2022/02/01 08:18:27;;;;;;;3.05;1.63;;;3.60;99.90;;;;;;5093782;28;20272;-76
2022/02/01 08:20:56;;;;;;;8.77;2.88;;;3.50;99.90;;;;;;5093127;28;20289;-76
2022/02/01 08:23:24;;;;;;;0.90;0.90;;;3.50;99.90;;;;;;5093202;28;20687;-75
2022/02/01 08:25:52;;;;;;;4.30;2.75;;;3.50;99.90;;;;;;5093323;28;20213;-75
2022/02/01 08:28:20;;;;;;;2.08;1.88;;;3.50;99.90;;;;;;5093557;28;20200;-76
2022/02/01 08:30:49;;;;;;;2.05;1.95;;;3.50;99.90;;;;;;5093328;28;20616;-76
2022/02/01 08:33:17;;;;;;;2.95;2.33;;;3.50;99.90;;;;;;5092935;28;20197;-76
2022/02/01 08:35:43;;;;;;;3.85;1.10;;;3.50;99.90;;;;;;5093136;28;20682;-76
2022/02/01 08:38:10;;;;;;;4.25;1.95;;;3.50;99.90;;;;;;5093588;28;20204;-76
2022/02/01 08:40:37;;;;;;;6.40;2.95;;;3.60;99.90;;;;;;5092735;28;20591;-75
2022/02/01 08:43:04;;;;;;;1.77;1.42;;;3.60;99.90;;;;;;5092941;28;20189;-76
2022/02/01 08:45:31;;;;;;;4.60;3.28;;;3.50;99.90;;;;;;5092921;28;20262;-76
2022/02/01 08:47:59;;;;;;;4.22;3.05;;;3.60;99.90;;;;;;5092690;28;20200;-76
2022/02/01 08:50:31;;;;;;;2.65;1.95;;;3.60;99.90;;;;;;5092382;28;20193;-77
2022/02/01 08:53:09;;;;;;;2.38;2.28;;;3.60;99.90;;;;;;5092894;28;20273;-76
2022/02/01 08:55:39;;;;;;;3.60;2.45;;;3.70;99.90;;;;;;5092219;28;20296;-76
2022/02/01 08:58:07;;;;;;;9.27;3.00;;;3.60;99.90;;;;;;5093430;28;20291;-76
2022/02/01 09:00:35;;;;;;;5.55;4.70;;;3.70;99.90;;;;;;5092952;28;20266;-76
2022/02/01 09:03:04;;;;;;;2.58;2.38;;;3.70;99.90;;;;;;5092517;28;20777;-76
2022/02/01 09:05:32;;;;;;;2.85;2.63;;;3.60;99.90;;;;;;5092777;28;20221;-77
2022/02/01 09:07:59;;;;;;;6.70;3.45;;;3.70;99.90;;;;;;5092570;28;20200;-76
2022/02/01 09:10:26;;;;;;;3.40;3.20;;;3.70;99.90;;;;;;5092765;28;20427;-76
2022/02/01 09:12:53;;;;;;;5.80;3.40;;;3.70;99.90;;;;;;5092185;28;20189;-76
2022/02/01 09:15:20;;;;;;;5.38;1.35;;;3.70;99.90;;;;;;5092481;28;20682;-76
2022/02/01 09:17:47;;;;;;;2.53;2.42;;;3.70;99.90;;;;;;5092150;28;20204;-76
2022/02/01 09:20:13;;;;;;;3.17;3.08;;;3.80;99.90;;;;;;5092139;28;20197;-76
2022/02/01 09:22:41;;;;;;;7.25;3.85;;;3.80;99.90;;;;;;5092549;28;20197;-76
2022/02/01 09:25:09;;;;;;;3.55;3.00;;;3.80;99.90;;;;;;5092220;28;20228;-77
2022/02/01 09:27:36;;;;;;;1.73;0.85;;;3.90;99.90;;;;;;5092585;28;20193;-76
2022/02/01 09:30:03;;;;;;;6.28;4.13;;;3.90;99.90;;;;;;5091600;28;20292;-76
2022/02/01 09:32:30;;;;;;;3.25;3.05;;;3.90;99.90;;;;;;5092418;28;20282;-76
2022/02/01 09:34:57;;;;;;;2.60;2.40;;;3.90;99.90;;;;;;5092467;28;20217;-76
2022/02/01 09:37:23;;;;;;;10.57;4.07;;;3.90;99.90;;;;;;5092269;28;20239;-76
2022/02/01 09:39:52;;;;;;;4.30;3.63;;;3.90;99.90;;;;;;5091412;28;20834;-76
2022/02/01 09:42:20;;;;;;;6.10;4.03;;;3.80;99.90;;;;;;5092143;28;20189;-76
2022/02/01 09:44:51;;;;;;;3.53;3.22;;;3.80;99.90;;;;;;5091712;28;20220;-76
2022/02/01 09:47:18;;;;;;;8.40;4.10;;;3.80;99.90;;;;;;5091502;28;20277;-76
2022/02/01 09:49:46;;;;;;;2.50;2.35;;;3.90;99.90;;;;;;5091669;28;20231;-76
2022/02/01 09:52:13;;;;;;;3.28;2.97;;;3.90;99.90;;;;;;5091495;28;20193;-76
2022/02/01 09:54:40;;;;;;;1.20;1.10;;;4.00;99.90;;;;;;5092437;28;20264;-79
2022/02/01 09:57:08;;;;;;;4.03;2.78;;;4.00;99.90;;;;;;5093009;28;20250;-76
2022/02/01 09:59:36;;;;;;;11.15;6.28;;;4.00;99.90;;;;;;5091734;28;20200;-77
2022/02/01 10:02:08;;;;;;;4.63;3.20;;;3.90;99.90;;;;;;5091988;28;20242;-76
2022/02/01 10:04:35;;;;;;;3.88;2.42;;;4.00;99.90;;;;;;5091424;28;20308;-75
2022/02/01 10:07:10;;;;;;;9.20;4.50;;;4.00;99.90;;;;;;5092067;28;20234;-75
2022/02/01 10:09:49;;;;;;;5.57;3.47;;;4.00;99.90;;;;;;5092017;28;20200;-75
2022/02/01 10:12:18;;;;;;;4.32;2.83;;;4.00;99.90;;;;;;5091888;28;20268;-78
2022/02/01 10:14:52;;;;;;;6.03;5.00;;;4.00;99.90;;;;;;5092012;28;20579;-76
2022/02/01 10:17:30;;;;;;;6.30;3.90;;;4.10;99.90;;;;;;5091603;28;20180;-76
2022/02/01 10:19:57;;;;;;;5.60;3.10;;;4.10;99.90;;;;;;5091693;28;20177;-76
2022/02/01 10:22:32;;;;;;;6.53;3.95;;;4.10;99.90;;;;;;5091646;28;20200;-76
2022/02/01 10:25:02;;;;;;;4.07;3.53;;;4.10;99.90;;;;;;5093220;28;20216;-75
2022/02/01 10:27:32;;;;;;;17.48;6.50;;;4.10;99.90;;;;;;5096141;28;20193;-75
2022/02/01 10:30:05;;;;;;;2.30;2.10;;;4.10;99.90;;;;;;5095567;28;20197;-75
2022/02/01 10:32:51;;;;;;;16.00;4.20;;;4.20;99.90;;;;;;5095855;28;20177;-75
2022/02/01 10:35:26;;;;;;;11.55;6.80;;;4.20;99.90;;;;;;5095666;28;20217;-75
2022/02/01 10:37:58;;;;;;;9.65;6.18;;;4.20;99.90;;;;;;5094754;28;20700;-75
2022/02/01 10:40:36;;;;;;;5.38;4.45;;;4.30;99.90;;;;;;5094873;28;20291;-75
2022/02/01 10:43:15;;;;;;;15.13;6.13;;;4.30;99.90;;;;;;5095575;28;20367;-75
2022/02/01 10:45:42;;;;;;;13.88;6.88;;;4.30;99.90;;;;;;5095194;28;20220;-75
2022/02/01 10:48:12;;;;;;;8.88;7.65;;;4.40;99.90;;;;;;5094801;28;20225;-75
2022/02/01 10:50:39;;;;;;;4.75;3.47;;;4.40;99.90;;;;;;5094424;28;20251;-74
2022/02/01 10:53:16;;;;;;;0.75;0.75;;;4.40;99.90;;;;;;5095281;28;20200;-76
2022/02/01 10:55:44;;;;;;;7.25;4.63;;;4.50;99.90;;;;;;5095148;28;20212;-75
2022/02/01 10:58:12;;;;;;;13.13;6.50;;;4.60;99.90;;;;;;5095457;28;20201;-75
2022/02/01 11:00:39;;;;;;;4.82;2.47;;;4.60;99.90;;;;;;5094129;28;20208;-75
2022/02/01 11:03:06;;;;;;;9.40;7.38;;;4.60;99.90;;;;;;5094893;28;20205;-76
2022/02/01 11:05:34;;;;;;;3.10;1.85;;;4.70;99.90;;;;;;5095161;28;20225;-75
2022/02/01 11:08:01;;;;;;;5.32;4.50;;;4.70;99.90;;;;;;5095164;28;20193;-76
2022/02/01 11:10:28;;;;;;;1.85;1.75;;;4.80;99.90;;;;;;5094719;28;20612;-76
2022/02/01 11:13:05;;;;;;;2.97;2.35;;;4.90;99.90;;;;;;5094801;28;20322;-76
2022/02/01 11:15:33;;;;;;;3.50;3.20;;;4.90;99.90;;;;;;5094794;28;20292;-76
2022/02/01 11:18:09;;;;;;;5.72;5.13;;;4.90;99.90;;;;;;5094950;28;20193;-75
2022/02/01 11:20:36;;;;;;;3.75;3.50;;;4.90;99.90;;;;;;5095213;28;20185;-76
2022/02/01 11:23:03;;;;;;;1.92;1.83;;;5.00;99.90;;;;;;5094745;28;20193;-76
2022/02/01 11:25:43;;;;;;;2.60;2.40;;;5.00;99.90;;;;;;5094375;28;20221;-76
2022/02/01 11:28:14;;;;;;;3.90;2.80;;;5.10;99.90;;;;;;5094302;28;20575;-76
2022/02/01 11:30:44;;;;;;;4.35;3.28;;;5.10;99.90;;;;;;5094635;28;20543;-76
2022/02/01 11:33:13;;;;;;;8.57;3.92;;;5.20;99.90;;;;;;5094452;28;20193;-77
2022/02/01 11:35:41;;;;;;;1.85;1.33;;;5.20;99.90;;;;;;5094399;28;20772;-76
2022/02/01 11:38:09;;;;;;;4.00;3.60;;;5.20;99.90;;;;;;5094428;28;20246;-76
2022/02/01 11:40:38;;;;;;;1.50;1.40;;;5.30;99.90;;;;;;5093892;28;20193;-76
2022/02/01 11:43:07;;;;;;;1.30;1.02;;;5.30;99.90;;;;;;5094536;28;20193;-76
2022/02/01 11:45:36;;;;;;;2.70;2.55;;;5.30;99.90;;;;;;5094836;28;20214;-76
2022/02/01 11:48:17;;;;;;;1.02;0.98;;;5.30;99.90;;;;;;5093861;28;20620;-76
2022/02/01 11:50:49;;;;;;;0.50;0.50;;;5.40;99.90;;;;;;5094019;28;20177;-76
2022/02/01 11:53:21;;;;;;;4.30;2.72;;;5.40;99.90;;;;;;5094347;28;20202;-76
2022/02/01 11:55:50;;;;;;;0.70;0.70;;;5.50;99.90;;;;;;5094092;28;20204;-76
2022/02/01 11:58:29;;;;;;;0.40;0.40;;;5.50;99.90;;;;;;5093983;28;20232;-75
2022/02/01 12:00:56;;;;;;;0.55;0.55;;;5.50;99.90;;;;;;5094009;28;20250;-76
2022/02/01 12:03:35;;;;;;;1.23;1.02;;;5.50;99.90;;;;;;5094020;28;20670;-75
2022/02/01 12:06:07;;;;;;;3.10;2.25;;;5.60;99.90;;;;;;5094270;28;20225;-76
2022/02/01 12:08:36;;;;;;;0.60;0.60;;;5.60;99.90;;;;;;5094113;28;20227;-76
2022/02/01 12:11:07;;;;;;;0.40;0.40;;;5.60;99.90;;;;;;5093997;28;20201;-77
2022/02/01 12:13:36;;;;;;;2.67;2.47;;;5.60;99.90;;;;;;5093788;28;20205;-76
2022/02/01 12:16:06;;;;;;;2.20;1.98;;;5.70;99.90;;;;;;5094252;28;20193;-76
2022/02/01 12:18:44;;;;;;;2.88;1.95;;;5.70;99.90;;;;;;5093508;28;20204;-75
2022/02/01 12:21:18;;;;;;;0.75;0.75;;;5.60;99.90;;;;;;5093751;28;20230;-76
2022/02/01 12:23:47;;;;;;;0.50;0.50;;;5.70;99.90;;;;;;5092794;28;20213;-76
2022/02/01 12:26:22;;;;;;;1.50;1.42;;;5.80;99.90;;;;;;5087626;22;20255;-80
2022/02/01 12:28:50;;;;;;;2.08;0.93;;;5.80;99.90;;;;;;5028977;28;20214;-79
2022/02/01 12:31:17;;;;;;;3.33;2.05;;;5.80;99.90;;;;;;5036957;28;20191;-80
2022/02/01 12:33:46;;;;;;;0.63;0.63;;;5.80;99.90;;;;;;5036224;28;20566;-82
2022/02/01 12:36:15;;;;;;;0.70;0.70;;;5.90;99.90;;;;;;5036641;28;20215;-76
2022/02/01 12:38:43;;;;;;;1.52;1.42;;;5.90;99.90;;;;;;5036404;28;20199;-80
2022/02/01 12:41:15;;;;;;;1.63;0.70;;;6.00;99.90;;;;;;5036329;28;20205;-81
2022/02/01 12:46:43;;;;;;;0.40;0.40;;;6.00;99.90;;;;;;5034176;28;20712;-80
2022/02/01 12:49:11;;;;;;;1.15;1.05;;;6.10;99.90;;;;;;5035659;28;20235;-80
2022/02/01 12:51:40;;;;;;;4.18;3.70;;;6.10;99.90;;;;;;5035418;28;20199;-80
2022/02/01 12:54:07;;;;;;;0.80;0.80;;;6.10;99.90;;;;;;5035831;28;20235;-79
2022/02/01 12:56:33;;;;;;;3.03;2.88;;;6.10;99.90;;;;;;5035559;28;20215;-80
2022/02/01 12:59:02;;;;;;;2.38;2.17;;;6.10;99.90;;;;;;5035612;28;20562;-79
2022/02/01 13:01:34;;;;;;;0.40;0.40;;;6.10;99.90;;;;;;5035846;28;20199;-79
2022/02/01 13:04:02;;;;;;;1.33;1.23;;;6.10;99.90;;;;;;5036501;28;20191;-80
2022/02/01 13:06:33;;;;;;;3.03;2.85;;;6.20;99.90;;;;;;5036657;28;20565;-81
2022/02/01 13:14:42;;;;;;;3.80;2.17;;;6.30;99.90;;;;;;5048470;28;20214;-80
2022/02/01 13:17:22;;;;;;;1.77;1.13;;;6.30;99.90;;;;;;5047611;28;20195;-80
2022/02/01 13:20:06;;;;;;;2.45;1.55;;;6.30;99.90;;;;;;5046227;28;20630;-80
2022/02/01 13:22:36;;;;;;;0.90;0.90;;;6.40;99.90;;;;;;5043316;28;20190;-80
2022/02/01 13:25:05;;;;;;;0.95;0.90;;;6.40;99.90;;;;;;5044984;28;20227;-79
2022/02/01 13:27:32;;;;;;;0.52;0.52;;;6.40;99.90;;;;;;5043590;28;20207;-79
2022/02/01 13:30:01;;;;;;;2.13;2.03;;;6.40;99.90;;;;;;5043278;28;20253;-78
2022/02/01 13:32:33;;;;;;;1.75;1.75;;;6.40;99.90;;;;;;5043978;28;20199;-80
2022/02/01 13:35:04;;;;;;;0.40;0.30;;;6.50;99.90;;;;;;5045087;28;20220;-80
2022/02/01 13:37:33;;;;;;;0.40;0.30;;;6.50;99.90;;;;;;5035772;28;20203;-80
2022/02/01 13:40:03;;;;;;;1.05;1.05;;;6.50;99.90;;;;;;5034381;28;20195;-80
2022/02/01 13:42:33;;;;;;;2.63;1.52;;;6.60;99.90;;;;;;5035403;28;20325;-81
2022/02/01 13:45:03;;;;;;;1.40;1.25;;;6.60;99.90;;;;;;5035416;28;20219;-77
2022/02/01 13:47:37;;;;;;;0.70;0.63;;;6.70;99.90;;;;;;5035059;28;20676;-79
2022/02/01 13:50:08;;;;;;;1.02;1.02;;;6.70;99.90;;;;;;5034998;28;20195;-80
2022/02/01 13:52:35;;;;;;;0.60;0.60;;;6.70;99.90;;;;;;5035405;28;20492;-79
2022/02/01 13:55:04;;;;;;;2.08;1.33;;;6.70;99.90;;;;;;5034974;28;20770;-80
2022/02/01 13:57:32;;;;;;;0.40;0.30;;;6.80;99.90;;;;;;5036243;28;20195;-78
2022/02/01 14:00:09;;;;;;;2.78;2.05;;;6.80;99.90;;;;;;5037174;28;20222;-79
2022/02/01 14:02:41;;;;;;;2.15;1.77;;;6.80;99.90;;;;;;5034552;28;20226;-79
2022/02/01 14:05:19;;;;;;;0.40;0.40;;;6.80;99.90;;;;;;5035525;28;20224;-82
2022/02/01 14:08:02;;;;;;;0.80;0.80;;;6.80;99.90;;;;;;5036475;28;20198;-80
2022/02/01 14:10:40;;;;;;;0.50;0.50;;;6.80;99.90;;;;;;5035233;28;20189;-80
2022/02/01 14:25:17;;;;;;;0.80;0.70;;;7.00;99.90;;;;;;5034318;28;20199;-80
2022/02/01 14:27:29;;;;;;;1.40;1.30;;;7.00;99.90;;;;;;5036472;28;20219;-79